sensor_id;sensor_type;location;lat;lon;timestamp;P1;P2;P0
77239;PMS7003;66258;53.170;-2.240;2023-06-05T00:00:22;838.60;837.40;815.00
77239;PMS7003;66258;53.170;-2.240;2023-06-05T00:02:50;1557.00;1557.00;1540.00
77239;PMS7003;66258;53.170;-2.240;2023-06-05T00:05:18;855.75;855.75;812.75
77239;PMS7003;66258;53.170;-2.240;2023-06-05T00:07:45;1210.60;1210.60;1196.80
77239;PMS7003;66258;53.170;-2.240;2023-06-05T00:10:12;2317.20;2317.20;2302.80
77239;PMS7003;66258;53.170;-2.240;2023-06-05T00:12:39;2677.80;2677.80;2667.00
77239;PMS7003;66258;53.170;-2.240;2023-06-05T00:15:09;2663.80;2663.60;2652.40
77239;PMS7003;66258;53.170;-2.240;2023-06-05T00:17:37;3059.40;3059.40;3048.40
77239;PMS7003;66258;53.170;-2.240;2023-06-05T00:20:05;2348.60;2348.60;2325.40
77239;PMS7003;66258;53.170;-2.240;2023-06-05T00:22:36;2334.40;2334.40;2313.40
77239;PMS7003;66258;53.170;-2.240;2023-06-05T00:25:04;2340.00;2338.60;2323.40
77239;PMS7003;66258;53.170;-2.240;2023-06-05T00:27:32;3343.75;3343.75;3341.00
77239;PMS7003;66258;53.170;-2.240;2023-06-05T00:29:59;3753.20;3753.20;3753.20
77239;PMS7003;66258;53.170;-2.240;2023-06-05T00:32:29;3036.20;3035.80;3016.00
77239;PMS7003;66258;53.170;-2.240;2023-06-05T00:34:56;3463.75;3463.75;3459.50
77239;PMS7003;66258;53.170;-2.240;2023-06-05T00:37:24;3688.50;3687.75;3687.75
77239;PMS7003;66258;53.170;-2.240;2023-06-05T00:39:51;3468.25;3467.25;3453.50
77239;PMS7003;66258;53.170;-2.240;2023-06-05T00:42:18;3346.00;3346.00;3332.00
77239;PMS7003;66258;53.170;-2.240;2023-06-05T00:44:46;1589.00;1589.00;1569.00
77239;PMS7003;66258;53.170;-2.240;2023-06-05T00:47:13;3304.80;3304.80;3303.00
77239;PMS7003;66258;53.170;-2.240;2023-06-05T00:49:42;3077.00;3077.00;3073.75
77239;PMS7003;66258;53.170;-2.240;2023-06-05T00:52:09;2303.20;2302.40;2284.40
77239;PMS7003;66258;53.170;-2.240;2023-06-05T00:54:37;3768.40;3768.40;3768.40
77239;PMS7003;66258;53.170;-2.240;2023-06-05T00:57:05;737.75;737.75;731.75
77239;PMS7003;66258;53.170;-2.240;2023-06-05T00:59:32;3722.40;3722.40;3722.20
77239;PMS7003;66258;53.170;-2.240;2023-06-05T01:02:00;936.20;934.80;906.00
77239;PMS7003;66258;53.170;-2.240;2023-06-05T01:04:28;3228.00;3228.00;3217.60
77239;PMS7003;66258;53.170;-2.240;2023-06-05T01:06:57;2696.00;2695.00;2673.60
77239;PMS7003;66258;53.170;-2.240;2023-06-05T01:09:25;3529.80;3529.80;3529.60
77239;PMS7003;66258;53.170;-2.240;2023-06-05T01:11:53;1222.50;1222.50;1197.75
77239;PMS7003;66258;53.170;-2.240;2023-06-05T01:14:27;3786.80;3786.80;3786.80
77239;PMS7003;66258;53.170;-2.240;2023-06-05T01:16:56;1585.20;1585.20;1552.80
77239;PMS7003;66258;53.170;-2.240;2023-06-05T01:19:26;3392.50;3391.75;3382.25
77239;PMS7003;66258;53.170;-2.240;2023-06-05T01:21:54;950.75;950.75;920.75
77239;PMS7003;66258;53.170;-2.240;2023-06-05T01:24:23;3418.60;3417.60;3405.20
77239;PMS7003;66258;53.170;-2.240;2023-06-05T01:26:53;3005.80;3005.80;2996.80
77239;PMS7003;66258;53.170;-2.240;2023-06-05T01:29:29;577.80;575.40;531.00
77239;PMS7003;66258;53.170;-2.240;2023-06-05T01:32:02;3049.40;3049.40;3039.60
77239;PMS7003;66258;53.170;-2.240;2023-06-05T01:34:36;913.40;912.80;875.60
77239;PMS7003;66258;53.170;-2.240;2023-06-05T01:37:05;3789.80;3789.80;3789.80
77239;PMS7003;66258;53.170;-2.240;2023-06-05T01:39:35;1586.60;1585.60;1581.80
77239;PMS7003;66258;53.170;-2.240;2023-06-05T01:42:04;95.00;91.40;79.40
77239;PMS7003;66258;53.170;-2.240;2023-06-05T01:44:33;209.00;207.50;166.25
77239;PMS7003;66258;53.170;-2.240;2023-06-05T01:47:01;3715.60;3715.60;3715.60
77239;PMS7003;66258;53.170;-2.240;2023-06-05T01:49:29;3529.40;3529.40;3524.60
77239;PMS7003;66258;53.170;-2.240;2023-06-05T01:51:57;3727.50;3727.50;3726.75
77239;PMS7003;66258;53.170;-2.240;2023-06-05T01:54:24;90.80;89.00;82.40
77239;PMS7003;66258;53.170;-2.240;2023-06-05T01:56:54;92.00;90.00;84.20
77239;PMS7003;66258;53.170;-2.240;2023-06-05T01:59:21;91.25;88.75;82.75
77239;PMS7003;66258;53.170;-2.240;2023-06-05T02:01:48;768.80;768.60;745.40
77239;PMS7003;66258;53.170;-2.240;2023-06-05T02:04:16;92.00;86.00;66.40
77239;PMS7003;66258;53.170;-2.240;2023-06-05T02:06:43;93.20;91.60;86.40
77239;PMS7003;66258;53.170;-2.240;2023-06-05T02:09:10;53.00;45.33;34.67
77239;PMS7003;66258;53.170;-2.240;2023-06-05T02:11:38;81.75;72.75;67.75
77239;PMS7003;66258;53.170;-2.240;2023-06-05T02:14:07;93.60;91.00;80.60
77239;PMS7003;66258;53.170;-2.240;2023-06-05T02:16:35;87.75;83.25;77.25
77239;PMS7003;66258;53.170;-2.240;2023-06-05T02:19:03;79.25;69.50;58.00
77239;PMS7003;66258;53.170;-2.240;2023-06-05T02:21:32;907.80;905.60;882.40
77239;PMS7003;66258;53.170;-2.240;2023-06-05T02:24:00;162.00;153.20;147.40
77239;PMS7003;66258;53.170;-2.240;2023-06-05T02:26:28;56.25;48.25;40.50
77239;PMS7003;66258;53.170;-2.240;2023-06-05T02:28:56;2243.00;2240.25;2225.25
77239;PMS7003;66258;53.170;-2.240;2023-06-05T02:31:26;2355.50;2355.50;2331.00
77239;PMS7003;66258;53.170;-2.240;2023-06-05T02:33:53;60.33;50.67;41.00
77239;PMS7003;66258;53.170;-2.240;2023-06-05T02:36:21;38.25;32.50;24.75
77239;PMS7003;66258;53.170;-2.240;2023-06-05T02:38:49;17.25;15.00;10.75
77239;PMS7003;66258;53.170;-2.240;2023-06-05T02:41:16;92.40;89.40;80.20
77239;PMS7003;66258;53.170;-2.240;2023-06-05T02:43:44;94.80;92.20;83.20
77239;PMS7003;66258;53.170;-2.240;2023-06-05T02:46:12;1576.00;1576.00;1553.50
77239;PMS7003;66258;53.170;-2.240;2023-06-05T02:48:41;79.40;68.20;63.60
77239;PMS7003;66258;53.170;-2.240;2023-06-05T02:51:08;169.20;165.40;151.80
77239;PMS7003;66258;53.170;-2.240;2023-06-05T02:53:36;85.50;78.25;73.00
77239;PMS7003;66258;53.170;-2.240;2023-06-05T02:56:03;95.80;93.20;82.60
77239;PMS7003;66258;53.170;-2.240;2023-06-05T02:58:31;90.60;88.60;79.00
77239;PMS7003;66258;53.170;-2.240;2023-06-05T03:00:58;84.80;77.40;73.40
77239;PMS7003;66258;53.170;-2.240;2023-06-05T03:03:25;20.00;19.00;10.25
77239;PMS7003;66258;53.170;-2.240;2023-06-05T03:05:54;44.67;40.00;31.00
77239;PMS7003;66258;53.170;-2.240;2023-06-05T03:08:21;20.50;19.00;12.50
77239;PMS7003;66258;53.170;-2.240;2023-06-05T03:10:48;73.00;62.00;55.00
77239;PMS7003;66258;53.170;-2.240;2023-06-05T03:13:16;170.00;167.80;155.60
77239;PMS7003;66258;53.170;-2.240;2023-06-05T03:15:43;1169.00;1168.00;1121.80
77239;PMS7003;66258;53.170;-2.240;2023-06-05T03:18:10;74.75;62.25;52.25
77239;PMS7003;66258;53.170;-2.240;2023-06-05T03:20:38;35.25;33.25;25.75
77239;PMS7003;66258;53.170;-2.240;2023-06-05T03:23:06;32.25;29.00;21.75
77239;PMS7003;66258;53.170;-2.240;2023-06-05T03:25:33;28.00;24.50;16.00
77239;PMS7003;66258;53.170;-2.240;2023-06-05T03:28:01;85.50;78.25;69.25
77239;PMS7003;66258;53.170;-2.240;2023-06-05T03:30:28;63.80;52.80;43.00
77239;PMS7003;66258;53.170;-2.240;2023-06-05T03:32:55;16.25;15.75;11.50
77239;PMS7003;66258;53.170;-2.240;2023-06-05T03:35:46;39.50;32.25;25.50
77239;PMS7003;66258;53.170;-2.240;2023-06-05T03:38:15;78.67;66.33;63.00
77239;PMS7003;66258;53.170;-2.240;2023-06-05T03:40:42;106.75;104.75;65.25
77239;PMS7003;66258;53.170;-2.240;2023-06-05T03:43:10;1184.60;1184.60;1178.20
77239;PMS7003;66258;53.170;-2.240;2023-06-05T03:45:38;305.80;300.40;278.60
77239;PMS7003;66258;53.170;-2.240;2023-06-05T03:48:05;107.60;105.80;75.40
77239;PMS7003;66258;53.170;-2.240;2023-06-05T03:50:33;878.60;878.00;870.00
77239;PMS7003;66258;53.170;-2.240;2023-06-05T03:53:01;1765.50;1764.25;1760.00
77239;PMS7003;66258;53.170;-2.240;2023-06-05T03:55:30;3632.20;3631.80;3628.20
77239;PMS7003;66258;53.170;-2.240;2023-06-05T03:57:58;3747.00;3746.75;3744.00
77239;PMS7003;66258;53.170;-2.240;2023-06-05T04:00:25;172.40;170.80;155.20
77239;PMS7003;66258;53.170;-2.240;2023-06-05T04:02:52;324.20;323.20;295.20
77239;PMS7003;66258;53.170;-2.240;2023-06-05T04:05:20;3546.80;3546.80;3544.80
77239;PMS7003;66258;53.170;-2.240;2023-06-05T04:07:47;600.60;597.60;563.40
77239;PMS7003;66258;53.170;-2.240;2023-06-05T04:10:15;100.80;99.20;69.80
77239;PMS7003;66258;53.170;-2.240;2023-06-05T04:12:43;2405.00;2405.00;2386.40
77239;PMS7003;66258;53.170;-2.240;2023-06-05T04:15:11;466.20;460.40;445.40
77239;PMS7003;66258;53.170;-2.240;2023-06-05T04:17:38;1212.80;1212.80;1195.80
77239;PMS7003;66258;53.170;-2.240;2023-06-05T04:20:06;99.60;95.60;79.20
77239;PMS7003;66258;53.170;-2.240;2023-06-05T04:22:35;250.00;249.00;231.20
77239;PMS7003;66258;53.170;-2.240;2023-06-05T04:25:02;91.40;89.40;83.40
77239;PMS7003;66258;53.170;-2.240;2023-06-05T04:27:31;82.25;74.75;70.25
77239;PMS7003;66258;53.170;-2.240;2023-06-05T04:30:00;1562.40;1561.00;1549.00
77239;PMS7003;66258;53.170;-2.240;2023-06-05T04:32:28;472.60;472.60;454.80
77239;PMS7003;66258;53.170;-2.240;2023-06-05T04:34:56;79.50;67.50;63.00
77239;PMS7003;66258;53.170;-2.240;2023-06-05T04:37:23;539.80;538.20;507.20
77239;PMS7003;66258;53.170;-2.240;2023-06-05T04:39:50;86.75;80.00;74.00
77239;PMS7003;66258;53.170;-2.240;2023-06-05T04:42:18;75.00;65.00;59.50
77239;PMS7003;66258;53.170;-2.240;2023-06-05T04:44:47;1202.25;1201.25;1179.75
77239;PMS7003;66258;53.170;-2.240;2023-06-05T04:47:23;82.60;73.60;58.80
77239;PMS7003;66258;53.170;-2.240;2023-06-05T04:49:51;18.50;15.75;10.25
77239;PMS7003;66258;53.170;-2.240;2023-06-05T04:52:18;36.50;34.00;26.50
77239;PMS7003;66258;53.170;-2.240;2023-06-05T04:54:45;18.75;18.75;16.00
77239;PMS7003;66258;53.170;-2.240;2023-06-05T04:57:12;30.25;23.50;18.50
77239;PMS7003;66258;53.170;-2.240;2023-06-05T04:59:40;87.25;82.00;78.00
77239;PMS7003;66258;53.170;-2.240;2023-06-05T05:02:08;519.80;516.00;509.80
77239;PMS7003;66258;53.170;-2.240;2023-06-05T05:04:36;260.60;260.60;225.60
77239;PMS7003;66258;53.170;-2.240;2023-06-05T05:07:04;85.25;77.50;70.75
77239;PMS7003;66258;53.170;-2.240;2023-06-05T05:09:31;72.00;61.00;54.00
77239;PMS7003;66258;53.170;-2.240;2023-06-05T05:11:58;98.00;94.20;83.40
77239;PMS7003;66258;53.170;-2.240;2023-06-05T05:14:26;272.25;267.50;258.50
77239;PMS7003;66258;53.170;-2.240;2023-06-05T05:16:53;69.75;58.75;55.00
77239;PMS7003;66258;53.170;-2.240;2023-06-05T05:19:21;1126.20;1125.40;1104.40
77239;PMS7003;66258;53.170;-2.240;2023-06-05T05:21:50;3720.60;3720.60;3720.60
77239;PMS7003;66258;53.170;-2.240;2023-06-05T05:24:17;3542.40;3542.40;3534.60
77239;PMS7003;66258;53.170;-2.240;2023-06-05T05:26:44;3275.00;3275.00;3266.40
77239;PMS7003;66258;53.170;-2.240;2023-06-05T05:29:11;3695.80;3695.80;3695.80
77239;PMS7003;66258;53.170;-2.240;2023-06-05T05:31:38;1551.60;1549.00;1530.80
77239;PMS7003;66258;53.170;-2.240;2023-06-05T05:34:06;2611.20;2610.80;2597.80
77239;PMS7003;66258;53.170;-2.240;2023-06-05T05:36:33;1533.40;1532.40;1511.80
77239;PMS7003;66258;53.170;-2.240;2023-06-05T05:39:02;3161.00;3158.25;3150.50
77239;PMS7003;66258;53.170;-2.240;2023-06-05T05:41:30;2698.00;2698.00;2676.80
77239;PMS7003;66258;53.170;-2.240;2023-06-05T05:43:57;1544.00;1544.00;1534.80
77239;PMS7003;66258;53.170;-2.240;2023-06-05T05:46:25;2618.60;2618.60;2615.60
77239;PMS7003;66258;53.170;-2.240;2023-06-05T05:48:53;1195.20;1195.20;1158.20
77239;PMS7003;66258;53.170;-2.240;2023-06-05T05:51:20;1979.75;1979.75;1970.25
77239;PMS7003;66258;53.170;-2.240;2023-06-05T05:53:47;2127.60;2126.20;2100.80
77239;PMS7003;66258;53.170;-2.240;2023-06-05T05:56:17;333.80;331.00;302.00
77239;PMS7003;66258;53.170;-2.240;2023-06-05T05:58:45;2236.20;2235.40;2213.40
77239;PMS7003;66258;53.170;-2.240;2023-06-05T06:01:12;834.60;834.60;814.40
77239;PMS7003;66258;53.170;-2.240;2023-06-05T06:03:39;2445.00;2444.20;2418.40
77239;PMS7003;66258;53.170;-2.240;2023-06-05T06:06:06;1263.00;1261.60;1231.00
77239;PMS7003;66258;53.170;-2.240;2023-06-05T06:08:34;2094.00;2091.60;2065.40
77239;PMS7003;66258;53.170;-2.240;2023-06-05T06:11:01;101.40;97.60;90.00
77239;PMS7003;66258;53.170;-2.240;2023-06-05T06:13:31;579.75;578.75;527.75
77239;PMS7003;66258;53.170;-2.240;2023-06-05T06:15:59;1961.80;1960.20;1932.00
77239;PMS7003;66258;53.170;-2.240;2023-06-05T06:18:27;3197.75;3197.75;3197.25
77239;PMS7003;66258;53.170;-2.240;2023-06-05T06:20:54;211.50;210.25;176.00
77239;PMS7003;66258;53.170;-2.240;2023-06-05T06:23:21;552.25;552.25;533.50
77239;PMS7003;66258;53.170;-2.240;2023-06-05T06:25:49;1632.00;1629.50;1595.25
77239;PMS7003;66258;53.170;-2.240;2023-06-05T06:28:16;1036.60;1033.80;996.60
77239;PMS7003;66258;53.170;-2.240;2023-06-05T06:30:45;390.80;388.60;378.40
77239;PMS7003;66258;53.170;-2.240;2023-06-05T06:33:16;528.20;528.20;518.80
77239;PMS7003;66258;53.170;-2.240;2023-06-05T06:35:43;94.20;93.80;85.60
77239;PMS7003;66258;53.170;-2.240;2023-06-05T06:38:11;726.75;726.00;686.00
77239;PMS7003;66258;53.170;-2.240;2023-06-05T06:40:38;2597.20;2597.20;2594.00
77239;PMS7003;66258;53.170;-2.240;2023-06-05T06:43:06;92.00;88.20;74.20
77239;PMS7003;66258;53.170;-2.240;2023-06-05T06:45:33;1106.20;1105.60;1088.00
77239;PMS7003;66258;53.170;-2.240;2023-06-05T06:48:03;89.00;85.75;81.75
77239;PMS7003;66258;53.170;-2.240;2023-06-05T06:50:34;87.80;84.60;80.60
77239;PMS7003;66258;53.170;-2.240;2023-06-05T06:53:01;99.20;97.40;84.60
77239;PMS7003;66258;53.170;-2.240;2023-06-05T06:55:29;87.80;86.00;79.60
77239;PMS7003;66258;53.170;-2.240;2023-06-05T06:57:56;99.40;99.20;85.40
77239;PMS7003;66258;53.170;-2.240;2023-06-05T07:00:23;1067.33;1065.33;1042.67
77239;PMS7003;66258;53.170;-2.240;2023-06-05T07:02:51;822.00;820.80;808.40
77239;PMS7003;66258;53.170;-2.240;2023-06-05T07:05:20;732.25;728.50;699.00
77239;PMS7003;66258;53.170;-2.240;2023-06-05T07:07:47;253.60;252.60;225.80
77239;PMS7003;66258;53.170;-2.240;2023-06-05T07:10:16;102.20;100.80;87.40
77239;PMS7003;66258;53.170;-2.240;2023-06-05T07:12:43;168.80;165.60;151.20
77239;PMS7003;66258;53.170;-2.240;2023-06-05T07:15:13;93.80;93.00;79.60
77239;PMS7003;66258;53.170;-2.240;2023-06-05T07:17:41;314.40;313.20;301.00
77239;PMS7003;66258;53.170;-2.240;2023-06-05T07:20:08;550.00;550.00;534.00
77239;PMS7003;66258;53.170;-2.240;2023-06-05T07:22:43;93.20;92.40;84.20
77239;PMS7003;66258;53.170;-2.240;2023-06-05T07:25:10;719.50;717.25;695.50
77239;PMS7003;66258;53.170;-2.240;2023-06-05T07:27:38;450.60;450.60;435.60
77239;PMS7003;66258;53.170;-2.240;2023-06-05T07:30:08;79.75;72.25;70.50
77239;PMS7003;66258;53.170;-2.240;2023-06-05T07:32:35;2791.00;2790.00;2772.25
77239;PMS7003;66258;53.170;-2.240;2023-06-05T07:35:03;109.20;107.60;91.20
77239;PMS7003;66258;53.170;-2.240;2023-06-05T07:37:31;804.00;804.00;794.00
77239;PMS7003;66258;53.170;-2.240;2023-06-05T07:40:00;1600.80;1600.00;1558.40
77239;PMS7003;66258;53.170;-2.240;2023-06-05T07:42:27;1257.25;1254.25;1225.00
77239;PMS7003;66258;53.170;-2.240;2023-06-05T07:44:55;2577.60;2577.60;2567.20
77239;PMS7003;66258;53.170;-2.240;2023-06-05T07:47:22;1596.60;1595.60;1572.40
77239;PMS7003;66258;53.170;-2.240;2023-06-05T07:49:56;627.50;627.00;614.00
77239;PMS7003;66258;53.170;-2.240;2023-06-05T07:52:24;1298.60;1298.40;1275.20
77239;PMS7003;66258;53.170;-2.240;2023-06-05T07:54:51;86.25;80.75;72.50
77239;PMS7003;66258;53.170;-2.240;2023-06-05T07:57:21;1231.00;1228.75;1210.00
77239;PMS7003;66258;53.170;-2.240;2023-06-05T07:59:48;86.75;84.75;79.50
77239;PMS7003;66258;53.170;-2.240;2023-06-05T08:02:16;1868.20;1865.80;1839.80
77239;PMS7003;66258;53.170;-2.240;2023-06-05T08:04:44;110.20;104.80;69.00
77239;PMS7003;66258;53.170;-2.240;2023-06-05T08:07:12;179.75;179.50;175.00
77239;PMS7003;66258;53.170;-2.240;2023-06-05T08:09:39;95.60;95.20;88.80
77239;PMS7003;66258;53.170;-2.240;2023-06-05T08:12:08;94.00;92.20;86.60
77239;PMS7003;66258;53.170;-2.240;2023-06-05T08:14:37;75.50;66.50;64.25
77239;PMS7003;66258;53.170;-2.240;2023-06-05T08:17:04;288.80;283.80;266.00
77239;PMS7003;66258;53.170;-2.240;2023-06-05T08:19:32;99.00;95.60;86.20
77239;PMS7003;66258;53.170;-2.240;2023-06-05T08:22:00;302.60;301.20;289.00
77239;PMS7003;66258;53.170;-2.240;2023-06-05T08:24:27;75.50;67.00;57.25
77239;PMS7003;66258;53.170;-2.240;2023-06-05T08:26:54;64.40;53.00;45.20
77239;PMS7003;66258;53.170;-2.240;2023-06-05T08:29:22;77.20;70.60;64.80
77239;PMS7003;66258;53.170;-2.240;2023-06-05T08:31:50;48.00;40.50;32.50
77239;PMS7003;66258;53.170;-2.240;2023-06-05T08:34:18;9.75;8.00;6.75
77239;PMS7003;66258;53.170;-2.240;2023-06-05T08:36:45;8.25;8.00;5.25
77239;PMS7003;66258;53.170;-2.240;2023-06-05T08:39:12;10.75;10.75;8.00
77239;PMS7003;66258;53.170;-2.240;2023-06-05T08:41:41;11.75;11.00;8.50
77239;PMS7003;66258;53.170;-2.240;2023-06-05T08:44:10;9.75;9.25;7.25
77239;PMS7003;66258;53.170;-2.240;2023-06-05T08:46:38;8.50;8.50;7.25
77239;PMS7003;66258;53.170;-2.240;2023-06-05T08:49:10;17.00;16.25;10.50
77239;PMS7003;66258;53.170;-2.240;2023-06-05T08:51:39;16.50;16.50;10.00
77239;PMS7003;66258;53.170;-2.240;2023-06-05T08:54:08;15.75;15.75;11.25
77239;PMS7003;66258;53.170;-2.240;2023-06-05T08:56:40;11.75;11.00;7.50
77239;PMS7003;66258;53.170;-2.240;2023-06-05T08:59:09;9.75;9.75;7.00
77239;PMS7003;66258;53.170;-2.240;2023-06-05T09:01:37;20.50;19.00;11.75
77239;PMS7003;66258;53.170;-2.240;2023-06-05T09:04:05;11.25;11.00;7.75
77239;PMS7003;66258;53.170;-2.240;2023-06-05T09:06:34;16.75;16.00;11.50
77239;PMS7003;66258;53.170;-2.240;2023-06-05T09:09:03;21.25;21.25;13.00
77239;PMS7003;66258;53.170;-2.240;2023-06-05T09:11:30;17.25;17.25;13.00
77239;PMS7003;66258;53.170;-2.240;2023-06-05T09:13:58;18.00;16.50;12.25
77239;PMS7003;66258;53.170;-2.240;2023-06-05T09:16:33;15.25;15.00;11.00
77239;PMS7003;66258;53.170;-2.240;2023-06-05T09:19:03;31.33;30.67;23.33
77239;PMS7003;66258;53.170;-2.240;2023-06-05T09:21:31;43.00;38.00;29.00
77239;PMS7003;66258;53.170;-2.240;2023-06-05T09:24:14;38.25;34.25;26.75
77239;PMS7003;66258;53.170;-2.240;2023-06-05T09:26:55;22.00;21.50;19.50
77239;PMS7003;66258;53.170;-2.240;2023-06-05T09:29:24;7.50;7.50;5.75
77239;PMS7003;66258;53.170;-2.240;2023-06-05T09:31:54;13.40;11.80;8.00
77239;PMS7003;66258;53.170;-2.240;2023-06-05T09:34:25;7.75;7.50;6.00
77239;PMS7003;66258;53.170;-2.240;2023-06-05T09:36:55;8.20;8.20;7.40
77239;PMS7003;66258;53.170;-2.240;2023-06-05T09:39:25;9.25;8.25;7.25
77239;PMS7003;66258;53.170;-2.240;2023-06-05T09:41:55;10.40;8.40;4.20
77239;PMS7003;66258;53.170;-2.240;2023-06-05T09:44:24;12.25;11.50;10.50
77239;PMS7003;66258;53.170;-2.240;2023-06-05T09:46:55;11.20;11.20;7.40
77239;PMS7003;66258;53.170;-2.240;2023-06-05T09:49:28;7.20;7.20;5.40
77239;PMS7003;66258;53.170;-2.240;2023-06-05T09:51:56;5.00;5.00;3.60
77239;PMS7003;66258;53.170;-2.240;2023-06-05T09:54:26;4.40;4.40;4.00
77239;PMS7003;66258;53.170;-2.240;2023-06-05T09:56:58;6.00;6.00;5.00
77239;PMS7003;66258;53.170;-2.240;2023-06-05T09:59:27;5.80;5.80;5.40
77239;PMS7003;66258;53.170;-2.240;2023-06-05T10:01:55;4.20;4.20;4.00
77239;PMS7003;66258;53.170;-2.240;2023-06-05T10:04:26;4.80;4.80;4.20
77239;PMS7003;66258;53.170;-2.240;2023-06-05T10:06:54;10.20;8.00;6.00
77239;PMS7003;66258;53.170;-2.240;2023-06-05T10:09:25;6.40;6.40;4.40
77239;PMS7003;66258;53.170;-2.240;2023-06-05T10:11:55;6.80;6.80;6.40
77239;PMS7003;66258;53.170;-2.240;2023-06-05T10:14:26;5.00;5.00;4.60
77239;PMS7003;66258;53.170;-2.240;2023-06-05T10:16:53;4.00;4.00;3.00
77239;PMS7003;66258;53.170;-2.240;2023-06-05T10:19:22;7.60;7.60;6.20
77239;PMS7003;66258;53.170;-2.240;2023-06-05T10:21:50;3.20;3.20;3.20
77239;PMS7003;66258;53.170;-2.240;2023-06-05T10:24:19;5.20;5.20;4.00
77239;PMS7003;66258;53.170;-2.240;2023-06-05T10:26:54;4.00;4.00;4.00
77239;PMS7003;66258;53.170;-2.240;2023-06-05T10:29:42;6.20;6.20;3.60
77239;PMS7003;66258;53.170;-2.240;2023-06-05T10:32:22;10.00;10.00;5.00
77239;PMS7003;66258;53.170;-2.240;2023-06-05T10:35:06;11.00;11.00;9.00
77239;PMS7003;66258;53.170;-2.240;2023-06-05T10:37:53;4.60;4.60;4.00
77239;PMS7003;66258;53.170;-2.240;2023-06-05T10:40:32;3.20;3.20;2.60
77239;PMS7003;66258;53.170;-2.240;2023-06-05T10:45:57;4.00;4.00;4.00
77239;PMS7003;66258;53.170;-2.240;2023-06-05T10:51:34;4.00;4.00;2.60
77239;PMS7003;66258;53.170;-2.240;2023-06-05T10:54:03;4.20;4.20;3.20
77239;PMS7003;66258;53.170;-2.240;2023-06-05T10:59:25;8.20;8.20;3.40
77239;PMS7003;66258;53.170;-2.240;2023-06-05T11:05:05;3.00;3.00;2.20
77239;PMS7003;66258;53.170;-2.240;2023-06-05T11:07:35;3.20;3.20;2.40
77239;PMS7003;66258;53.170;-2.240;2023-06-05T11:10:13;3.80;3.80;2.00
77239;PMS7003;66258;53.170;-2.240;2023-06-05T11:12:58;3.40;3.40;1.80
77239;PMS7003;66258;53.170;-2.240;2023-06-05T11:15:35;2.60;2.60;2.00
77239;PMS7003;66258;53.170;-2.240;2023-06-05T11:18:27;3.00;3.00;2.00
77239;PMS7003;66258;53.170;-2.240;2023-06-05T11:21:00;4.80;4.80;4.00
77239;PMS7003;66258;53.170;-2.240;2023-06-05T11:23:28;2.80;2.80;2.60
77239;PMS7003;66258;53.170;-2.240;2023-06-05T11:25:56;6.20;6.20;4.00
77239;PMS7003;66258;53.170;-2.240;2023-06-05T11:28:44;5.00;5.00;4.00
77239;PMS7003;66258;53.170;-2.240;2023-06-05T11:34:10;5.00;5.00;4.00
77239;PMS7003;66258;53.170;-2.240;2023-06-05T11:36:38;5.20;5.20;3.00
77239;PMS7003;66258;53.170;-2.240;2023-06-05T11:39:09;5.20;5.20;3.40
77239;PMS7003;66258;53.170;-2.240;2023-06-05T11:41:42;5.40;5.40;4.00
77239;PMS7003;66258;53.170;-2.240;2023-06-05T11:44:11;7.00;7.00;4.80
77239;PMS7003;66258;53.170;-2.240;2023-06-05T11:46:41;6.40;6.40;5.20
77239;PMS7003;66258;53.170;-2.240;2023-06-05T11:49:21;4.40;4.40;4.00
77239;PMS7003;66258;53.170;-2.240;2023-06-05T11:51:50;6.20;6.20;4.80
77239;PMS7003;66258;53.170;-2.240;2023-06-05T11:54:27;4.80;4.80;4.40
77239;PMS7003;66258;53.170;-2.240;2023-06-05T11:56:57;4.60;4.60;3.80
77239;PMS7003;66258;53.170;-2.240;2023-06-05T11:59:25;5.00;5.00;4.00
77239;PMS7003;66258;53.170;-2.240;2023-06-05T12:01:54;5.40;5.40;5.00
77239;PMS7003;66258;53.170;-2.240;2023-06-05T12:04:22;7.20;7.20;5.60
77239;PMS7003;66258;53.170;-2.240;2023-06-05T12:06:50;6.20;6.20;4.20
77239;PMS7003;66258;53.170;-2.240;2023-06-05T12:09:17;5.40;5.40;4.40
77239;PMS7003;66258;53.170;-2.240;2023-06-05T12:11:44;6.60;6.60;5.20
77239;PMS7003;66258;53.170;-2.240;2023-06-05T12:14:13;6.80;6.80;5.60
77239;PMS7003;66258;53.170;-2.240;2023-06-05T12:16:57;8.20;8.20;6.20
77239;PMS7003;66258;53.170;-2.240;2023-06-05T12:19:27;7.00;7.00;6.00
77239;PMS7003;66258;53.170;-2.240;2023-06-05T12:22:01;7.20;7.20;6.60
77239;PMS7003;66258;53.170;-2.240;2023-06-05T12:24:28;9.20;9.20;6.00
77239;PMS7003;66258;53.170;-2.240;2023-06-05T12:26:59;7.60;7.60;4.00
77239;PMS7003;66258;53.170;-2.240;2023-06-05T12:29:27;7.40;7.40;6.00
77239;PMS7003;66258;53.170;-2.240;2023-06-05T12:31:57;7.00;7.00;5.40
77239;PMS7003;66258;53.170;-2.240;2023-06-05T12:34:37;7.20;7.20;6.00
77239;PMS7003;66258;53.170;-2.240;2023-06-05T12:37:25;5.00;5.00;4.00
77239;PMS7003;66258;53.170;-2.240;2023-06-05T12:39:54;4.20;4.20;2.60
77239;PMS7003;66258;53.170;-2.240;2023-06-05T12:42:22;4.00;4.00;3.00
77239;PMS7003;66258;53.170;-2.240;2023-06-05T12:44:50;3.40;3.40;3.00
77239;PMS7003;66258;53.170;-2.240;2023-06-05T12:47:19;5.80;5.80;4.20
77239;PMS7003;66258;53.170;-2.240;2023-06-05T12:49:49;4.60;4.60;2.40
77239;PMS7003;66258;53.170;-2.240;2023-06-05T12:52:18;5.60;5.60;4.20
77239;PMS7003;66258;53.170;-2.240;2023-06-05T12:54:46;5.40;5.40;5.00
77239;PMS7003;66258;53.170;-2.240;2023-06-05T12:57:13;1.60;1.60;1.40
77239;PMS7003;66258;53.170;-2.240;2023-06-05T12:59:41;6.80;6.80;5.00
77239;PMS7003;66258;53.170;-2.240;2023-06-05T13:02:10;6.00;6.00;1.40
77239;PMS7003;66258;53.170;-2.240;2023-06-05T13:04:39;7.60;7.60;6.40
77239;PMS7003;66258;53.170;-2.240;2023-06-05T13:07:07;7.00;7.00;5.00
77239;PMS7003;66258;53.170;-2.240;2023-06-05T13:09:34;6.20;6.20;5.00
77239;PMS7003;66258;53.170;-2.240;2023-06-05T13:12:02;5.60;5.60;4.40
77239;PMS7003;66258;53.170;-2.240;2023-06-05T13:14:32;5.80;5.80;5.20
77239;PMS7003;66258;53.170;-2.240;2023-06-05T13:16:59;6.20;6.20;4.00
77239;PMS7003;66258;53.170;-2.240;2023-06-05T13:19:27;8.80;8.80;5.00
77239;PMS7003;66258;53.170;-2.240;2023-06-05T13:21:57;7.20;7.20;5.00
77239;PMS7003;66258;53.170;-2.240;2023-06-05T13:24:26;3.20;3.20;3.00
77239;PMS7003;66258;53.170;-2.240;2023-06-05T13:26:53;5.80;5.80;5.20
77239;PMS7003;66258;53.170;-2.240;2023-06-05T13:29:21;8.60;8.60;7.00
77239;PMS7003;66258;53.170;-2.240;2023-06-05T13:31:48;7.60;7.60;3.80
77239;PMS7003;66258;53.170;-2.240;2023-06-05T13:34:16;5.20;5.20;4.20
77239;PMS7003;66258;53.170;-2.240;2023-06-05T13:36:43;8.00;8.00;7.00
77239;PMS7003;66258;53.170;-2.240;2023-06-05T13:39:12;5.00;5.00;3.80
77239;PMS7003;66258;53.170;-2.240;2023-06-05T13:41:40;7.40;7.40;5.60
77239;PMS7003;66258;53.170;-2.240;2023-06-05T13:44:07;6.00;6.00;5.00
77239;PMS7003;66258;53.170;-2.240;2023-06-05T13:46:35;3.60;3.60;3.00